Time,TemperatureF,DewpointF,PressureIn,WindDirection,WindDirectionDegrees,WindSpeedMPH,WindSpeedGustMPH,Humidity,HourlyPrecipIn,Conditions,Clouds,dailyrainin,SoftwareType,DateUTC
2013-03-22 00:00:00,25.7,11.2,30.07,NW,315,0.0,0.0,54,0.00,,,0.00,WUHU216HW,2013-03-22 04:00:00,
2013-03-22 00:05:00,25.7,11.2,30.06,NW,315,0.0,0.0,54,0.00,,,0.00,WUHU216HW,2013-03-22 04:05:00,
2013-03-22 00:10:00,25.7,11.2,30.06,NNW,338,0.0,0.0,54,0.00,,,0.00,WUHU216HW,2013-03-22 04:10:00,
2013-03-22 00:15:00,25.8,11.4,30.07,NNW,338,0.0,0.0,54,0.00,,,0.00,WUHU216HW,2013-03-22 04:15:00,
2013-03-22 00:20:00,25.8,11.4,30.07,NNW,338,0.0,0.0,54,0.00,,,0.00,WUHU216HW,2013-03-22 04:20:00,
2013-03-22 00:25:00,25.8,11.4,30.08,NNW,338,0.0,0.0,54,0.00,,,0.00,WUHU216HW,2013-03-22 04:25:00,
2013-03-22 00:30:00,25.8,11.4,30.08,NNW,338,0.0,0.0,54,0.00,,,0.00,WUHU216HW,2013-03-22 04:30:00,
2013-03-22 00:35:00,25.8,11.4,30.08,NNW,338,0.0,0.0,54,0.00,,,0.00,WUHU216HW,2013-03-22 04:35:00,
2013-03-22 00:40:00,25.8,11.4,30.08,NNW,338,0.0,0.0,54,0.00,,,0.00,WUHU216HW,2013-03-22 04:40:00,
2013-03-22 00:45:00,25.8,11.4,30.08,NNW,338,0.0,0.0,54,0.00,,,0.00,WUHU216HW,2013-03-22 04:45:00,
2013-03-22 00:50:00,25.8,11.4,30.08,NNW,338,0.0,0.0,54,0.00,,,0.00,WUHU216HW,2013-03-22 04:50:00,
2013-03-22 00:55:00,25.8,11.4,30.08,NNW,338,0.0,0.0,54,0.00,,,0.00,WUHU216HW,2013-03-22 04:55:00,
2013-03-22 01:00:00,25.7,11.2,30.08,NNW,338,0.0,0.0,54,0.00,,,0.00,WUHU216HW,2013-03-22 05:00:00,
2013-03-22 01:05:00,25.7,11.4,30.07,NNW,338,0.0,0.0,55,0.00,,,0.00,WUHU216HW,2013-03-22 05:05:00,
2013-03-22 01:10:00,25.5,11.4,30.07,NNW,338,0.0,0.0,55,0.00,,,0.00,WUHU216HW,2013-03-22 05:10:00,
2013-03-22 01:15:00,25.3,11.3,30.08,NNW,338,0.0,0.0,55,0.00,,,0.00,WUHU216HW,2013-03-22 05:15:00,
2013-03-22 01:20:00,25.3,11.3,30.08,NNW,338,0.0,0.0,55,0.00,,,0.00,WUHU216HW,2013-03-22 05:20:00,
2013-03-22 01:25:00,24.9,11.4,30.08,NNW,338,0.0,0.0,56,0.00,,,0.00,WUHU216HW,2013-03-22 05:25:00,
2013-03-22 01:30:00,24.9,11.4,30.08,NNW,338,0.0,0.0,56,0.00,,,0.00,WUHU216HW,2013-03-22 05:30:00,
2013-03-22 01:35:00,24.8,11.4,30.08,NNW,338,0.0,0.0,56,0.00,,,0.00,WUHU216HW,2013-03-22 05:35:00,
2013-03-22 01:40:00,24.6,11.0,30.08,NNW,338,0.0,0.0,56,0.00,,,0.00,WUHU216HW,2013-03-22 05:40:00,
2013-03-22 01:45:00,24.6,11.0,30.08,NNW,338,0.0,0.0,56,0.00,,,0.00,WUHU216HW,2013-03-22 05:45:00,
2013-03-22 01:50:00,24.6,11.0,30.08,NNW,338,0.0,0.0,56,0.00,,,0.00,WUHU216HW,2013-03-22 05:50:00,
2013-03-22 01:55:00,24.6,11.0,30.08,NNW,338,0.0,0.0,56,0.00,,,0.00,WUHU216HW,2013-03-22 05:55:00,
2013-03-22 02:00:00,24.6,11.4,30.08,NNW,338,0.0,0.0,57,0.00,,,0.00,WUHU216HW,2013-03-22 06:00:00,
2013-03-22 02:05:00,24.4,11.3,30.08,NNW,338,0.0,0.0,57,0.00,,,0.00,WUHU216HW,2013-03-22 06:05:00,
2013-03-22 02:10:00,24.4,11.3,30.08,NNW,338,0.0,0.0,57,0.00,,,0.00,WUHU216HW,2013-03-22 06:10:00,
2013-03-22 02:15:00,24.4,11.3,30.08,NNW,338,0.0,0.0,57,0.00,,,0.00,WUHU216HW,2013-03-22 06:15:00,
2013-03-22 02:20:00,24.4,11.3,30.08,NW,315,0.0,0.0,57,0.00,,,0.00,WUHU216HW,2013-03-22 06:20:00,
2013-03-22 02:25:00,24.2,11.1,30.08,NW,315,0.0,0.0,57,0.00,,,0.00,WUHU216HW,2013-03-22 06:25:00,
2013-03-22 02:30:00,24.0,10.9,30.08,NW,315,0.0,0.0,57,0.00,,,0.00,WUHU216HW,2013-03-22 06:30:00,
2013-03-22 02:35:00,23.9,10.9,30.08,NW,315,0.0,0.0,57,0.00,,,0.00,WUHU216HW,2013-03-22 06:35:00,
2013-03-22 02:40:00,23.7,10.6,30.08,NW,315,0.0,0.0,57,0.00,,,0.00,WUHU216HW,2013-03-22 06:40:00,
2013-03-22 02:45:00,23.5,10.4,30.08,NW,315,0.0,0.0,57,0.00,,,0.00,WUHU216HW,2013-03-22 06:45:00,
2013-03-22 02:50:00,23.5,10.4,30.08,NW,315,0.0,0.0,57,0.00,,,0.00,WUHU216HW,2013-03-22 06:50:00,
2013-03-22 02:55:00,23.1,10.0,30.09,NW,315,0.0,0.0,57,0.00,,,0.00,WUHU216HW,2013-03-22 06:55:00,
2013-03-22 03:00:00,23.0,9.9,30.09,NW,315,0.0,0.0,57,0.00,,,0.00,WUHU216HW,2013-03-22 07:00:00,
2013-03-22 03:05:00,22.8,9.7,30.09,NW,315,0.0,0.0,57,0.00,,,0.00,WUHU216HW,2013-03-22 07:05:00,
2013-03-22 03:10:00,22.6,9.5,30.09,NW,315,0.0,0.0,57,0.00,,,0.00,WUHU216HW,2013-03-22 07:10:00,
2013-03-22 03:15:00,22.6,9.5,30.09,NW,315,0.0,0.0,57,0.00,,,0.00,WUHU216HW,2013-03-22 07:15:00,
2013-03-22 05:47:00,20.1,9.1,30.09,NW,315,0.0,0.0,62,0.00,,,0.00,WUHU216HW,2013-03-22 09:47:00,
2013-03-22 05:52:00,19.9,8.9,30.09,NW,315,0.0,0.0,62,0.00,,,0.00,WUHU216HW,2013-03-22 09:52:00,
2013-03-22 05:57:00,19.9,8.9,30.09,NW,315,0.0,0.0,62,0.00,,,0.00,WUHU216HW,2013-03-22 09:57:00,
2013-03-22 06:02:00,19.9,8.9,30.09,NW,315,0.0,0.0,62,0.00,,,0.00,WUHU216HW,2013-03-22 10:02:00,
2013-03-22 06:07:00,19.9,9.4,30.09,NW,315,0.0,0.0,63,0.00,,,0.00,WUHU216HW,2013-03-22 10:07:00,
2013-03-22 06:12:00,20.1,9.4,30.10,NW,315,0.0,0.0,63,0.00,,,0.00,WUHU216HW,2013-03-22 10:12:00,
2013-03-22 06:17:00,20.1,9.7,30.10,NW,315,0.0,0.0,64,0.00,,,0.00,WUHU216HW,2013-03-22 10:17:00,
2013-03-22 06:22:00,20.1,9.7,30.10,NW,315,0.0,0.0,64,0.00,,,0.00,WUHU216HW,2013-03-22 10:22:00,
2013-03-22 06:27:00,20.1,9.7,30.10,NW,315,0.0,0.0,64,0.00,,,0.00,WUHU216HW,2013-03-22 10:27:00,
2013-03-22 06:32:00,20.1,10.1,30.10,NW,315,0.0,0.0,65,0.00,,,0.00,WUHU216HW,2013-03-22 10:32:00,
2013-03-22 06:37:00,20.1,10.1,30.10,NW,315,0.0,0.0,65,0.00,,,0.00,WUHU216HW,2013-03-22 10:37:00,
2013-03-22 06:42:00,19.9,9.9,30.11,NW,315,0.0,0.0,65,0.00,,,0.00,WUHU216HW,2013-03-22 10:42:00,
2013-03-22 06:47:00,19.9,9.9,30.11,NW,315,0.0,0.0,65,0.00,,,0.00,WUHU216HW,2013-03-22 10:47:00,
2013-03-22 06:52:00,19.9,9.9,30.11,NW,315,0.0,0.0,65,0.00,,,0.00,WUHU216HW,2013-03-22 10:52:00,
2013-03-22 06:57:00,19.9,9.9,30.11,NW,315,0.0,0.0,65,0.00,,,0.00,WUHU216HW,2013-03-22 10:57:00,
2013-03-22 07:02:00,19.7,9.7,30.11,NW,315,0.0,0.0,65,0.00,,,0.00,WUHU216HW,2013-03-22 11:02:00,
2013-03-22 07:07:00,19.5,9.7,30.12,NW,315,0.0,0.0,65,0.00,,,0.00,WUHU216HW,2013-03-22 11:07:00,
2013-03-22 07:12:00,19.5,9.5,30.12,NW,315,0.0,0.0,65,0.00,,,0.00,WUHU216HW,2013-03-22 11:12:00,
2013-03-22 07:17:00,19.5,9.5,30.12,NW,315,0.0,0.0,65,0.00,,,0.00,WUHU216HW,2013-03-22 11:17:00,
2013-03-22 07:22:00,19.5,9.5,30.12,NW,315,0.0,0.0,65,0.00,,,0.00,WUHU216HW,2013-03-22 11:22:00,
2013-03-22 07:27:00,19.5,9.9,30.12,NW,315,0.0,0.0,66,0.00,,,0.00,WUHU216HW,2013-03-22 11:27:00,
2013-03-22 07:32:00,19.5,9.9,30.13,NW,315,0.0,0.0,66,0.00,,,0.00,WUHU216HW,2013-03-22 11:32:00,
2013-03-22 07:38:00,19.5,10.2,30.13,NW,315,0.0,0.0,67,0.00,,,0.00,WUHU216HW,2013-03-22 11:38:00,
2013-03-22 07:43:00,19.5,10.2,30.13,NW,315,0.0,0.0,67,0.00,,,0.00,WUHU216HW,2013-03-22 11:43:00,
2013-03-22 07:48:00,19.4,10.0,30.13,NW,315,0.0,0.0,67,0.00,,,0.00,WUHU216HW,2013-03-22 11:48:00,
2013-03-22 07:53:00,19.5,10.2,30.13,NW,315,0.0,0.0,67,0.00,,,0.00,WUHU216HW,2013-03-22 11:53:00,
2013-03-22 07:58:00,19.5,10.6,30.13,NW,315,0.0,0.0,68,0.00,,,0.00,WUHU216HW,2013-03-22 11:58:00,
2013-03-22 08:03:00,19.5,10.6,30.13,NW,315,0.0,0.0,68,0.00,,,0.00,WUHU216HW,2013-03-22 12:03:00,
2013-03-22 08:08:00,19.5,10.6,30.13,NW,315,0.0,0.0,68,0.00,,,0.00,WUHU216HW,2013-03-22 12:08:00,
2013-03-22 08:13:00,19.9,10.9,30.13,NW,315,0.0,0.0,68,0.00,,,0.00,WUHU216HW,2013-03-22 12:13:00,
2013-03-22 08:18:00,19.9,10.9,30.13,NW,315,0.0,0.0,68,0.00,,,0.00,WUHU216HW,2013-03-22 12:18:00,
2013-03-22 08:23:00,20.3,11.4,30.13,NW,315,0.0,0.0,69,0.00,,,0.00,WUHU216HW,2013-03-22 12:23:00,
2013-03-22 08:28:00,20.4,11.8,30.13,NW,315,0.0,0.0,69,0.00,,,0.00,WUHU216HW,2013-03-22 12:28:00,
2013-03-22 08:33:00,20.4,11.8,30.13,NW,315,0.0,0.0,69,0.00,,,0.00,WUHU216HW,2013-03-22 12:33:00,
2013-03-22 08:38:00,20.8,12.5,30.13,NW,315,0.0,0.0,69,0.00,,,0.00,WUHU216HW,2013-03-22 12:38:00,
2013-03-22 08:43:00,21.2,12.9,30.13,NW,315,0.0,0.0,70,0.00,,,0.00,WUHU216HW,2013-03-22 12:43:00,
2013-03-22 08:48:00,21.3,12.7,30.14,NW,315,0.0,0.0,69,0.00,,,0.00,WUHU216HW,2013-03-22 12:48:00,
2013-03-22 08:53:00,21.7,13.2,30.13,NW,315,0.0,0.0,69,0.00,,,0.00,WUHU216HW,2013-03-22 12:53:00,
2013-03-22 08:58:00,22.2,13.6,30.13,NW,315,0.0,0.0,69,0.00,,,0.00,WUHU216HW,2013-03-22 12:58:00,
2013-03-22 09:03:00,22.4,13.4,30.13,NW,315,0.0,0.0,68,0.00,,,0.00,WUHU216HW,2013-03-22 13:03:00,
2013-03-22 09:08:00,22.8,14.1,30.13,NW,315,0.0,0.0,69,0.00,,,0.00,WUHU216HW,2013-03-22 13:08:00,
2013-03-22 09:13:00,23.1,14.1,30.13,NW,315,0.0,0.0,68,0.00,,,0.00,WUHU216HW,2013-03-22 13:13:00,
2013-03-22 09:18:00,23.3,14.3,30.14,NW,315,0.0,0.0,68,0.00,,,0.00,WUHU216HW,2013-03-22 13:18:00,
2013-03-22 09:23:00,23.5,14.1,30.13,NW,315,0.0,0.0,67,0.00,,,0.00,WUHU216HW,2013-03-22 13:23:00,
2013-03-22 09:28:00,23.7,14.3,30.14,NW,315,0.0,0.0,67,0.00,,,0.00,WUHU216HW,2013-03-22 13:28:00,
2013-03-22 09:33:00,23.7,14.3,30.13,NW,315,0.0,0.0,67,0.00,,,0.00,WUHU216HW,2013-03-22 13:33:00,
2013-03-22 09:38:00,24.0,14.6,30.13,NW,315,0.0,0.0,67,0.00,,,0.00,WUHU216HW,2013-03-22 13:38:00,
2013-03-22 09:43:00,24.4,14.9,30.13,NW,315,0.0,0.0,67,0.00,,,0.00,WUHU216HW,2013-03-22 13:43:00,
2013-03-22 09:48:00,24.6,15.1,30.13,NW,315,0.0,0.0,67,0.00,,,0.00,WUHU216HW,2013-03-22 13:48:00,
2013-03-22 09:53:00,24.9,15.1,30.13,NW,315,0.0,0.0,66,0.00,,,0.00,WUHU216HW,2013-03-22 13:53:00,
2013-03-22 09:58:00,25.5,15.6,30.13,NW,315,0.0,0.0,66,0.00,,,0.00,WUHU216HW,2013-03-22 13:58:00,
2013-03-22 10:03:00,25.8,15.9,30.13,NW,315,0.0,0.0,66,0.00,,,0.00,WUHU216HW,2013-03-22 14:03:00,
2013-03-22 10:08:00,26.4,16.5,30.14,NW,315,0.0,0.0,66,0.00,,,0.00,WUHU216HW,2013-03-22 14:08:00,
2013-03-22 10:13:00,27.6,17.7,30.13,NW,315,0.0,0.0,66,0.00,,,0.00,WUHU216HW,2013-03-22 14:13:00,
2013-03-22 10:18:00,28.2,17.9,30.14,NW,315,0.0,0.0,65,0.00,,,0.00,WUHU216HW,2013-03-22 14:18:00,
2013-03-22 10:23:00,28.9,18.6,30.14,NW,315,0.0,0.0,65,0.00,,,0.00,WUHU216HW,2013-03-22 14:23:00,
2013-03-22 10:28:00,30.0,19.2,30.14,WSW,248,0.0,0.0,64,0.00,,,0.00,WUHU216HW,2013-03-22 14:28:00,
2013-03-22 10:33:00,30.7,19.9,30.14,WSW,248,0.0,0.0,64,0.00,,,0.00,WUHU216HW,2013-03-22 14:33:00,
2013-03-22 10:38:00,31.6,20.4,30.14,WNW,293,0.0,0.0,63,0.00,,,0.00,WUHU216HW,2013-03-22 14:38:00,
2013-03-22 10:43:00,32.1,20.2,30.13,NW,315,0.0,0.0,61,0.00,,,0.00,WUHU216HW,2013-03-22 14:43:00,
2013-03-22 10:48:00,32.5,19.8,30.13,NW,315,0.0,0.0,59,0.00,,,0.00,WUHU216HW,2013-03-22 14:48:00,
2013-03-22 10:53:00,33.2,20.4,30.14,NW,315,0.0,0.0,59,0.00,,,0.00,WUHU216HW,2013-03-22 14:53:00,
2013-03-22 10:58:00,33.8,20.5,30.14,NW,315,0.0,0.0,58,0.00,,,0.00,WUHU216HW,2013-03-22 14:58:00,
2013-03-22 11:03:00,34.3,20.6,30.13,NW,315,0.0,0.0,57,0.00,,,0.00,WUHU216HW,2013-03-22 15:03:00,
2013-03-22 11:08:00,34.8,20.7,30.13,NW,315,0.0,0.0,56,0.00,,,0.00,WUHU216HW,2013-03-22 15:08:00,
2013-03-22 11:13:00,35.2,21.4,30.13,NW,315,0.0,0.0,56,0.00,,,0.00,WUHU216HW,2013-03-22 15:13:00,
2013-03-22 11:18:00,36.3,21.6,30.13,NW,315,0.0,0.0,55,0.00,,,0.00,WUHU216HW,2013-03-22 15:18:00,
2013-03-22 11:23:00,37.4,21.8,30.13,NNW,338,0.0,0.0,54,0.00,,,0.00,WUHU216HW,2013-03-22 15:23:00,
2013-03-22 11:28:00,37.9,22.2,30.12,NNW,338,0.0,0.0,53,0.00,,,0.00,WUHU216HW,2013-03-22 15:28:00,
2013-03-22 11:33:00,38.4,22.3,30.12,NNW,338,0.0,0.0,52,0.00,,,0.00,WUHU216HW,2013-03-22 15:33:00,
2013-03-22 11:38:00,39.0,20.8,30.12,NW,315,0.0,1.3,48,0.00,,,0.00,WUHU216HW,2013-03-22 15:38:00,
2013-03-22 11:43:00,39.3,20.6,30.12,NW,315,0.0,1.3,47,0.00,,,0.00,WUHU216HW,2013-03-22 15:43:00,
2013-03-22 11:48:00,39.7,20.4,30.12,WNW,293,0.0,0.0,46,0.00,,,0.00,WUHU216HW,2013-03-22 15:48:00,
2013-03-22 11:53:00,39.9,20.1,30.12,NNW,338,0.0,0.0,45,0.00,,,0.00,WUHU216HW,2013-03-22 15:53:00,
2013-03-22 11:58:00,40.4,20.1,30.11,NNW,338,0.0,0.0,44,0.00,,,0.00,WUHU216HW,2013-03-22 15:58:00,
2013-03-22 12:03:00,41.1,20.7,30.11,NW,315,0.0,0.0,44,0.00,,,0.00,WUHU216HW,2013-03-22 16:03:00,
2013-03-22 12:08:00,41.5,20.5,30.11,NW,315,0.0,0.0,43,0.00,,,0.00,WUHU216HW,2013-03-22 16:08:00,
2013-03-22 12:13:00,41.9,20.3,30.11,NW,315,0.0,0.0,42,0.00,,,0.00,WUHU216HW,2013-03-22 16:13:00,
2013-03-22 12:18:00,42.4,21.9,30.11,North,0,0.0,0.0,44,0.00,,,0.00,WUHU216HW,2013-03-22 16:18:00,
2013-03-22 12:23:00,42.9,21.9,30.11,NNW,338,0.0,0.0,43,0.00,,,0.00,WUHU216HW,2013-03-22 16:23:00,
2013-03-22 12:28:00,43.3,21.6,30.11,WNW,293,0.0,0.0,42,0.00,,,0.00,WUHU216HW,2013-03-22 16:28:00,
2013-03-22 12:33:00,43.5,21.3,30.11,NW,315,0.0,0.0,41,0.00,,,0.00,WUHU216HW,2013-03-22 16:33:00,
2013-03-22 12:38:00,43.8,21.6,30.11,NNW,338,0.0,0.0,41,0.00,,,0.00,WUHU216HW,2013-03-22 16:38:00,
2013-03-22 12:43:00,44.4,22.1,30.11,NE,45,0.0,0.0,41,0.00,,,0.00,WUHU216HW,2013-03-22 16:43:00,
2013-03-22 12:48:00,44.9,22.6,30.11,WNW,293,0.0,0.0,41,0.00,,,0.00,WUHU216HW,2013-03-22 16:48:00,
2013-03-22 12:53:00,45.5,21.8,30.11,West,270,0.0,0.0,39,0.00,,,0.00,WUHU216HW,2013-03-22 16:53:00,
2013-03-22 12:58:00,45.6,22.7,30.11,SSW,203,0.0,0.0,40,0.00,,,0.00,WUHU216HW,2013-03-22 16:58:00,
2013-03-22 13:03:00,46.0,23.0,30.11,SE,135,0.0,0.0,40,0.00,,,0.00,WUHU216HW,2013-03-22 17:03:00,
2013-03-22 13:08:00,46.5,22.8,30.10,SE,135,0.0,0.0,39,0.00,,,0.00,WUHU216HW,2013-03-22 17:08:00,
2013-03-22 13:13:00,46.5,22.8,30.10,NNW,338,0.0,0.0,39,0.00,,,0.00,WUHU216HW,2013-03-22 17:13:00,
2013-03-22 13:18:00,47.1,23.3,30.10,NNW,338,0.0,0.0,39,0.00,,,0.00,WUHU216HW,2013-03-22 17:18:00,
2013-03-22 13:23:00,47.4,24.3,30.10,NW,315,0.0,0.0,40,0.00,,,0.00,WUHU216HW,2013-03-22 17:23:00,
2013-03-22 13:28:00,47.8,22.6,30.09,NNW,338,0.0,0.0,37,0.00,,,0.00,WUHU216HW,2013-03-22 17:28:00,
2013-03-22 13:33:00,47.4,21.6,30.10,NW,315,0.0,0.0,36,0.00,,,0.00,WUHU216HW,2013-03-22 17:33:00,
2013-03-22 13:38:00,47.4,21.6,30.08,NW,315,0.0,0.0,36,0.00,,,0.00,WUHU216HW,2013-03-22 17:38:00,
2013-03-22 13:43:00,47.8,22.6,30.09,WSW,248,0.0,0.0,37,0.00,,,0.00,WUHU216HW,2013-03-22 17:43:00,
2013-03-22 13:48:00,48.7,22.7,30.08,WNW,293,0.0,0.0,36,0.00,,,0.00,WUHU216HW,2013-03-22 17:48:00,
2013-03-22 13:53:00,48.7,22.1,30.08,NW,315,0.0,0.0,35,0.00,,,0.00,WUHU216HW,2013-03-22 17:53:00,
2013-03-22 13:58:00,48.9,22.9,30.08,NW,315,0.0,0.0,36,0.00,,,0.00,WUHU216HW,2013-03-22 17:58:00,
2013-03-22 14:03:00,49.2,23.2,30.08,SSE,158,0.0,0.0,36,0.00,,,0.00,WUHU216HW,2013-03-22 18:03:00,
2013-03-22 14:08:00,49.6,23.5,30.09,NNW,338,0.0,0.0,36,0.00,,,0.00,WUHU216HW,2013-03-22 18:08:00,
2013-03-22 14:13:00,49.2,21.8,30.09,NW,315,0.0,0.0,34,0.00,,,0.00,WUHU216HW,2013-03-22 18:13:00,
2013-03-22 14:18:00,49.6,22.8,30.09,NW,315,0.0,0.0,35,0.00,,,0.00,WUHU216HW,2013-03-22 18:18:00,
2013-03-22 14:23:00,49.8,22.3,30.09,NE,45,0.0,0.0,34,0.00,,,0.00,WUHU216HW,2013-03-22 18:23:00,
2013-03-22 14:28:00,49.8,23.0,30.09,NE,45,0.0,0.0,35,0.00,,,0.00,WUHU216HW,2013-03-22 18:28:00,
2013-03-22 14:33:00,49.8,21.6,30.08,NNE,23,0.0,0.0,33,0.00,,,0.00,WUHU216HW,2013-03-22 18:33:00,
2013-03-22 14:38:00,49.8,22.3,30.08,NNE,23,0.0,0.0,34,0.00,,,0.00,WUHU216HW,2013-03-22 18:38:00,
2013-03-22 14:43:00,49.8,22.3,30.08,NNE,23,0.0,0.0,34,0.00,,,0.00,WUHU216HW,2013-03-22 18:43:00,
2013-03-22 14:48:00,49.8,22.3,30.08,NNE,23,0.0,0.0,34,0.00,,,0.00,WUHU216HW,2013-03-22 18:48:00,
2013-03-22 14:53:00,49.2,21.2,30.08,North,0,0.0,0.0,33,0.00,,,0.00,WUHU216HW,2013-03-22 18:53:00,
2013-03-22 14:58:00,49.2,21.8,30.08,North,0,0.0,0.0,34,0.00,,,0.00,WUHU216HW,2013-03-22 18:58:00,
2013-03-22 15:03:00,49.2,21.8,30.08,NNW,338,0.0,0.0,34,0.00,,,0.00,WUHU216HW,2013-03-22 19:03:00,
2013-03-22 15:08:00,49.1,21.0,30.08,NNE,23,0.0,0.0,33,0.00,,,0.00,WUHU216HW,2013-03-22 19:08:00,
2013-03-22 15:13:00,49.1,21.0,30.07,NNW,338,0.0,0.0,33,0.00,,,0.00,WUHU216HW,2013-03-22 19:13:00,
2013-03-22 15:18:00,49.6,21.5,30.07,NW,315,0.0,0.0,33,0.00,,,0.00,WUHU216HW,2013-03-22 19:18:00,
2013-03-22 15:23:00,49.6,20.8,30.08,NW,315,0.0,0.0,32,0.00,,,0.00,WUHU216HW,2013-03-22 19:23:00,
2013-03-22 15:28:00,49.6,20.8,30.08,WNW,293,0.0,0.0,32,0.00,,,0.00,WUHU216HW,2013-03-22 19:28:00,
2013-03-22 15:33:00,49.2,21.2,30.08,WNW,293,0.0,0.0,33,0.00,,,0.00,WUHU216HW,2013-03-22 19:33:00,
2013-03-22 15:38:00,49.1,21.0,30.08,WNW,293,0.0,0.0,33,0.00,,,0.00,WUHU216HW,2013-03-22 19:38:00,
2013-03-22 15:43:00,48.3,19.7,30.08,NW,315,0.0,0.0,32,0.00,,,0.00,WUHU216HW,2013-03-22 19:43:00,
2013-03-22 15:48:00,48.0,20.1,30.08,NW,315,0.0,0.0,33,0.00,,,0.00,WUHU216HW,2013-03-22 19:48:00,
2013-03-22 15:53:00,48.0,20.1,30.08,WNW,293,0.0,0.0,33,0.00,,,0.00,WUHU216HW,2013-03-22 19:53:00,
2013-03-22 15:58:00,47.6,19.0,30.08,WNW,293,0.0,0.0,32,0.00,,,0.00,WUHU216HW,2013-03-22 19:58:00,
2013-03-22 16:03:00,47.4,19.6,30.08,WNW,293,0.0,0.0,33,0.00,,,0.00,WUHU216HW,2013-03-22 20:03:00,
2013-03-22 16:08:00,47.3,19.5,30.08,WNW,293,0.0,0.0,33,0.00,,,0.00,WUHU216HW,2013-03-22 20:08:00,
2013-03-22 16:13:00,46.9,19.1,30.08,NW,315,0.0,0.0,33,0.00,,,0.00,WUHU216HW,2013-03-22 20:13:00,
2013-03-22 16:18:00,46.7,19.0,30.08,NW,315,0.0,0.0,33,0.00,,,0.00,WUHU216HW,2013-03-22 20:18:00,
2013-03-22 16:23:00,46.5,18.8,30.08,WNW,293,0.0,0.0,33,0.00,,,0.00,WUHU216HW,2013-03-22 20:23:00,
2013-03-22 16:28:00,46.5,18.8,30.08,NW,315,0.0,0.0,33,0.00,,,0.00,WUHU216HW,2013-03-22 20:28:00,
2013-03-22 16:33:00,46.5,18.8,30.08,NW,315,0.0,0.0,33,0.00,,,0.00,WUHU216HW,2013-03-22 20:33:00,
2013-03-22 16:38:00,46.5,19.5,30.08,NW,315,0.0,0.0,34,0.00,,,0.00,WUHU216HW,2013-03-22 20:38:00,
2013-03-22 16:43:00,46.5,19.5,30.08,NW,315,0.0,0.0,34,0.00,,,0.00,WUHU216HW,2013-03-22 20:43:00,
2013-03-22 16:48:00,46.5,19.5,30.08,NW,315,0.0,0.0,34,0.00,,,0.00,WUHU216HW,2013-03-22 20:48:00,
2013-03-22 16:53:00,46.5,18.8,30.08,NW,315,0.0,0.0,33,0.00,,,0.00,WUHU216HW,2013-03-22 20:53:00,
2013-03-22 16:58:00,45.6,18.0,30.08,WNW,293,0.0,0.0,33,0.00,,,0.00,WUHU216HW,2013-03-22 20:58:00,
2013-03-22 17:03:00,45.5,17.8,30.08,WNW,293,0.0,0.0,33,0.00,,,0.00,WUHU216HW,2013-03-22 21:03:00,
2013-03-22 17:08:00,45.3,18.3,30.08,WNW,293,0.0,0.0,34,0.00,,,0.00,WUHU216HW,2013-03-22 21:08:00,
2013-03-22 17:13:00,45.3,18.3,30.08,WNW,293,0.0,0.0,34,0.00,,,0.00,WUHU216HW,2013-03-22 21:13:00,
2013-03-22 17:18:00,45.3,18.3,30.08,WNW,293,0.0,0.0,34,0.00,,,0.00,WUHU216HW,2013-03-22 21:18:00,
2013-03-22 17:23:00,44.9,18.0,30.08,WNW,293,0.0,0.0,34,0.00,,,0.00,WUHU216HW,2013-03-22 21:23:00,
2013-03-22 17:28:00,45.1,18.8,30.08,WNW,293,0.0,0.0,35,0.00,,,0.00,WUHU216HW,2013-03-22 21:28:00,
2013-03-22 17:33:00,45.1,18.2,30.08,NW,315,0.0,0.0,34,0.00,,,0.00,WUHU216HW,2013-03-22 21:33:00,
2013-03-22 17:39:00,44.9,18.7,30.08,NW,315,0.0,0.0,35,0.00,,,0.00,WUHU216HW,2013-03-22 21:39:00,
2013-03-22 17:44:00,44.9,18.7,30.08,NW,315,0.0,0.0,35,0.00,,,0.00,WUHU216HW,2013-03-22 21:44:00,
2013-03-22 17:49:00,44.7,19.2,30.08,NW,315,0.0,0.0,36,0.00,,,0.00,WUHU216HW,2013-03-22 21:49:00,
2013-03-22 17:54:00,44.7,19.2,30.08,NW,315,0.0,0.0,36,0.00,,,0.00,WUHU216HW,2013-03-22 21:54:00,
2013-03-22 17:59:00,44.9,20.0,30.08,NW,315,0.0,0.0,37,0.00,,,0.00,WUHU216HW,2013-03-22 21:59:00,
2013-03-22 18:04:00,44.9,20.0,30.08,NW,315,0.0,0.0,37,0.00,,,0.00,WUHU216HW,2013-03-22 22:04:00,
2013-03-22 18:09:00,44.9,20.0,30.08,NW,315,0.0,0.0,37,0.00,,,0.00,WUHU216HW,2013-03-22 22:09:00,
2013-03-22 18:14:00,44.7,19.9,30.08,NW,315,0.0,0.0,37,0.00,,,0.00,WUHU216HW,2013-03-22 22:14:00,
2013-03-22 18:19:00,44.6,19.7,30.08,NW,315,0.0,0.0,37,0.00,,,0.00,WUHU216HW,2013-03-22 22:19:00,
2013-03-22 18:24:00,44.6,19.7,30.09,WNW,293,0.0,0.0,37,0.00,,,0.00,WUHU216HW,2013-03-22 22:24:00,
2013-03-22 18:29:00,44.6,19.7,30.09,WNW,293,0.0,0.0,37,0.00,,,0.00,WUHU216HW,2013-03-22 22:29:00,
2013-03-22 18:34:00,44.4,19.5,30.08,WNW,293,0.0,0.0,37,0.00,,,0.00,WUHU216HW,2013-03-22 22:34:00,
2013-03-22 18:39:00,44.4,20.2,30.08,WNW,293,0.0,0.0,38,0.00,,,0.00,WUHU216HW,2013-03-22 22:39:00,
2013-03-22 18:44:00,44.4,20.2,30.08,NW,315,0.0,0.0,38,0.00,,,0.00,WUHU216HW,2013-03-22 22:44:00,
2013-03-22 18:49:00,44.4,20.2,30.09,NW,315,0.0,0.0,38,0.00,,,0.00,WUHU216HW,2013-03-22 22:49:00,
2013-03-22 18:54:00,44.4,20.9,30.09,NW,315,0.0,0.0,39,0.00,,,0.00,WUHU216HW,2013-03-22 22:54:00,
2013-03-22 18:59:00,44.4,20.9,30.08,NW,315,0.0,0.0,39,0.00,,,0.00,WUHU216HW,2013-03-22 22:59:00,
2013-03-22 19:04:00,44.2,20.7,30.08,NW,315,0.0,0.0,39,0.00,,,0.00,WUHU216HW,2013-03-22 23:04:00,
2013-03-22 19:09:00,44.2,20.7,30.09,NW,315,0.0,0.0,39,0.00,,,0.00,WUHU216HW,2013-03-22 23:09:00,
2013-03-22 19:14:00,44.0,21.2,30.09,NW,315,0.0,0.0,40,0.00,,,0.00,WUHU216HW,2013-03-22 23:14:00,
2013-03-22 19:19:00,43.8,21.0,30.09,NW,315,0.0,0.0,40,0.00,,,0.00,WUHU216HW,2013-03-22 23:19:00,
2013-03-22 19:24:00,43.8,21.0,30.09,NW,315,0.0,0.0,40,0.00,,,0.00,WUHU216HW,2013-03-22 23:24:00,
2013-03-22 19:29:00,43.5,20.7,30.09,NW,315,0.0,0.0,40,0.00,,,0.00,WUHU216HW,2013-03-22 23:29:00,
2013-03-22 19:34:00,43.3,20.6,30.09,NW,315,0.0,0.0,40,0.00,,,0.00,WUHU216HW,2013-03-22 23:34:00,
2013-03-22 19:39:00,43.1,20.4,30.09,NW,315,0.0,0.0,40,0.00,,,0.00,WUHU216HW,2013-03-22 23:39:00,
2013-03-22 19:44:00,42.9,20.8,30.09,NW,315,0.0,0.0,41,0.00,,,0.00,WUHU216HW,2013-03-22 23:44:00,
2013-03-22 19:49:00,42.8,20.6,30.10,NW,315,0.0,0.0,41,0.00,,,0.00,WUHU216HW,2013-03-22 23:49:00,
2013-03-22 19:54:00,42.6,20.4,30.09,NW,315,0.0,0.0,41,0.00,,,0.00,WUHU216HW,2013-03-22 23:54:00,
2013-03-22 19:59:00,42.4,20.3,30.10,NW,315,0.0,0.0,41,0.00,,,0.00,WUHU216HW,2013-03-22 23:59:00,
2013-03-22 20:04:00,42.4,20.8,30.10,NW,315,0.0,0.0,42,0.00,,,0.00,WUHU216HW,2013-03-23 00:04:00,
2013-03-22 20:09:00,42.0,20.5,30.10,NW,315,0.0,0.0,42,0.00,,,0.00,WUHU216HW,2013-03-23 00:09:00,
2013-03-22 20:14:00,41.9,20.3,30.10,NW,315,0.0,0.0,42,0.00,,,0.00,WUHU216HW,2013-03-23 00:14:00,
2013-03-22 20:19:00,41.7,20.7,30.10,NW,315,0.0,0.0,43,0.00,,,0.00,WUHU216HW,2013-03-23 00:19:00,
2013-03-22 20:24:00,41.5,20.5,30.10,NW,315,0.0,0.0,43,0.00,,,0.00,WUHU216HW,2013-03-23 00:24:00,
2013-03-22 20:29:00,41.3,20.3,30.10,NW,315,0.0,0.0,43,0.00,,,0.00,WUHU216HW,2013-03-23 00:29:00,
2013-03-22 20:34:00,41.3,20.3,30.10,NW,315,0.0,0.0,43,0.00,,,0.00,WUHU216HW,2013-03-23 00:34:00,
2013-03-22 20:39:00,41.1,20.2,30.11,NW,315,0.0,0.0,43,0.00,,,0.00,WUHU216HW,2013-03-23 00:39:00,
2013-03-22 20:44:00,41.1,20.2,30.11,NW,315,0.0,0.0,43,0.00,,,0.00,WUHU216HW,2013-03-23 00:44:00,
2013-03-22 20:49:00,41.1,20.7,30.11,NW,315,0.0,0.0,43,0.00,,,0.00,WUHU216HW,2013-03-23 00:49:00,
2013-03-22 20:54:00,41.1,20.7,30.11,NW,315,0.0,0.0,44,0.00,,,0.00,WUHU216HW,2013-03-23 00:54:00,
2013-03-22 20:59:00,41.0,20.5,30.11,NW,315,0.0,0.0,44,0.00,,,0.00,WUHU216HW,2013-03-23 00:59:00,
2013-03-22 21:04:00,41.0,20.5,30.11,NW,315,0.0,0.0,44,0.00,,,0.00,WUHU216HW,2013-03-23 01:04:00,
2013-03-22 21:09:00,40.8,20.4,30.11,NW,315,0.0,0.0,44,0.00,,,0.00,WUHU216HW,2013-03-23 01:09:00,
2013-03-22 21:14:00,40.8,20.4,30.11,NW,315,0.0,0.0,44,0.00,,,0.00,WUHU216HW,2013-03-23 01:14:00,
2013-03-22 21:19:00,40.8,20.7,30.11,NW,315,0.0,0.0,45,0.00,,,0.00,WUHU216HW,2013-03-23 01:19:00,
2013-03-22 21:24:00,40.6,20.7,30.11,NW,315,0.0,0.0,45,0.00,,,0.00,WUHU216HW,2013-03-23 01:24:00,
2013-03-22 21:29:00,40.6,20.7,30.12,NW,315,0.0,0.0,45,0.00,,,0.00,WUHU216HW,2013-03-23 01:29:00,
2013-03-22 21:34:00,40.4,20.6,30.12,NW,315,0.0,0.0,45,0.00,,,0.00,WUHU216HW,2013-03-23 01:34:00,
2013-03-22 21:39:00,40.4,20.6,30.12,NW,315,0.0,0.0,45,0.00,,,0.00,WUHU216HW,2013-03-23 01:39:00,
2013-03-22 21:44:00,40.2,20.9,30.12,NW,315,0.0,0.0,46,0.00,,,0.00,WUHU216HW,2013-03-23 01:44:00,
2013-03-22 21:49:00,40.2,20.9,30.13,NW,315,0.0,0.0,46,0.00,,,0.00,WUHU216HW,2013-03-23 01:49:00,
2013-03-22 21:54:00,40.2,20.9,30.13,NW,315,0.0,0.0,46,0.00,,,0.00,WUHU216HW,2013-03-23 01:54:00,
2013-03-22 21:59:00,40.2,21.5,30.13,NW,315,0.0,0.0,47,0.00,,,0.00,WUHU216HW,2013-03-23 01:59:00,
2013-03-22 22:04:00,40.1,21.3,30.13,NW,315,0.0,0.0,47,0.00,,,0.00,WUHU216HW,2013-03-23 02:04:00,
2013-03-22 22:09:00,40.1,21.3,30.13,NW,315,0.0,0.0,47,0.00,,,0.00,WUHU216HW,2013-03-23 02:09:00,
2013-03-22 22:14:00,39.9,21.1,30.13,NW,315,0.0,0.0,47,0.00,,,0.00,WUHU216HW,2013-03-23 02:14:00,
2013-03-22 22:19:00,39.9,21.1,30.13,NW,315,0.0,0.0,47,0.00,,,0.00,WUHU216HW,2013-03-23 02:19:00,
2013-03-22 22:24:00,39.9,21.1,30.13,NW,315,0.0,0.0,47,0.00,,,0.00,WUHU216HW,2013-03-23 02:24:00,
2013-03-22 22:29:00,39.9,21.1,30.13,NW,315,0.0,0.0,47,0.00,,,0.00,WUHU216HW,2013-03-23 02:29:00,
2013-03-22 22:34:00,39.9,21.7,30.13,NW,315,0.0,0.0,48,0.00,,,0.00,WUHU216HW,2013-03-23 02:34:00,
2013-03-22 22:39:00,39.9,21.7,30.13,NW,315,0.0,0.0,48,0.00,,,0.00,WUHU216HW,2013-03-23 02:39:00,
2013-03-22 22:44:00,39.7,21.5,30.13,NW,315,0.0,0.0,48,0.00,,,0.00,WUHU216HW,2013-03-23 02:44:00,
2013-03-22 22:49:00,39.7,21.5,30.13,NW,315,0.0,0.0,48,0.00,,,0.00,WUHU216HW,2013-03-23 02:49:00,
2013-03-22 22:54:00,39.7,21.5,30.13,NW,315,0.0,0.0,48,0.00,,,0.00,WUHU216HW,2013-03-23 02:54:00,
2013-03-22 22:59:00,39.7,21.5,30.13,NW,315,0.0,0.0,48,0.00,,,0.00,WUHU216HW,2013-03-23 02:59:00,
2013-03-22 23:04:00,39.7,21.5,30.13,NW,315,0.0,0.0,48,0.00,,,0.00,WUHU216HW,2013-03-23 03:04:00,
2013-03-22 23:09:00,39.5,21.9,30.13,NW,315,0.0,0.0,49,0.00,,,0.00,WUHU216HW,2013-03-23 03:09:00,
2013-03-22 23:14:00,39.5,21.9,30.13,NW,315,0.0,0.0,49,0.00,,,0.00,WUHU216HW,2013-03-23 03:14:00,
2013-03-22 23:19:00,39.5,21.9,30.13,NW,315,0.0,0.0,49,0.00,,,0.00,WUHU216HW,2013-03-23 03:19:00,
2013-03-22 23:24:00,39.5,21.9,30.12,NW,315,0.0,0.0,49,0.00,,,0.00,WUHU216HW,2013-03-23 03:24:00,
2013-03-22 23:29:00,39.3,21.7,30.13,NW,315,0.0,0.0,49,0.00,,,0.00,WUHU216HW,2013-03-23 03:29:00,
2013-03-22 23:34:00,39.3,21.7,30.13,NW,315,0.0,0.0,49,0.00,,,0.00,WUHU216HW,2013-03-23 03:34:00,
2013-03-22 23:39:00,39.3,22.2,30.13,NW,315,0.0,0.0,50,0.00,,,0.00,WUHU216HW,2013-03-23 03:39:00,
2013-03-22 23:44:00,39.3,22.2,30.13,NW,315,0.0,0.0,50,0.00,,,0.00,WUHU216HW,2013-03-23 03:44:00,
2013-03-22 23:49:00,39.3,22.2,30.13,NW,315,0.0,0.0,50,0.00,,,0.00,WUHU216HW,2013-03-23 03:49:00,
2013-03-22 23:54:00,39.2,22.1,30.13,NW,315,0.0,0.0,50,0.00,,,0.00,WUHU216HW,2013-03-23 03:54:00,
2013-03-22 23:59:00,39.2,22.1,30.13,NW,315,0.0,0.0,50,0.00,,,0.00,WUHU216HW,2013-03-23 03:59:00,